createdAt,value
2017-04-22T00:00:50.393Z,101444.55
2017-04-22T00:01:51.293Z,101433.33
2017-04-22T00:02:52.678Z,101441.61
2017-04-22T00:03:52.865Z,101437.25
2017-04-22T00:04:53.028Z,101438.53
2017-04-22T00:05:53.175Z,101439.48
2017-04-22T00:06:53.386Z,101434.70
2017-04-22T00:07:53.555Z,101436.09
2017-04-22T00:08:53.718Z,101437.47
2017-04-22T00:09:53.918Z,101441.82
2017-04-22T00:10:54.062Z,101439.17
2017-04-22T00:11:54.961Z,101444.78
2017-04-22T00:12:55.093Z,101439.38
2017-04-22T00:13:55.275Z,101437.57
2017-04-22T00:14:55.446Z,101437.67
2017-04-22T00:15:55.594Z,101443.40
2017-04-22T00:16:55.750Z,101436.61
2017-04-22T00:17:55.904Z,101436.71
2017-04-22T00:18:56.087Z,101448.17
2017-04-22T00:19:56.203Z,101438.41
2017-04-22T00:20:56.346Z,101440.95
2017-04-22T00:21:56.488Z,101440.42
2017-04-22T00:22:57.352Z,101433.95
2017-04-22T00:23:57.518Z,101429.60
2017-04-22T00:24:58.382Z,101429.41
2017-04-22T00:25:58.946Z,101431.53
2017-04-22T00:26:59.061Z,101428.34
2017-04-22T00:27:59.174Z,101427.50
2017-04-22T00:28:59.350Z,101425.48
2017-04-22T00:29:59.510Z,101422.39
2017-04-22T00:31:00.370Z,101427.06
2017-04-22T00:32:00.483Z,101419.42
2017-04-22T00:33:00.606Z,101429.70
2017-04-22T00:34:00.745Z,101422.17
2017-04-22T00:35:00.899Z,101426.02
2017-04-22T00:36:01.010Z,101423.79
2017-04-22T00:37:01.134Z,101424.52
2017-04-22T00:38:01.255Z,101420.59
2017-04-22T00:39:01.438Z,101420.17
2017-04-22T00:40:01.696Z,101423.03
2017-04-22T00:41:01.813Z,101422.19
2017-04-22T00:42:01.940Z,101424.94
2017-04-22T00:43:02.057Z,101415.50
2017-04-22T00:44:02.214Z,101421.54
2017-04-22T00:45:02.322Z,101420.69
2017-04-22T00:46:02.439Z,101417.42
2017-04-22T00:47:02.588Z,101418.24
2017-04-22T00:48:02.706Z,101412.55
2017-04-22T00:49:03.638Z,101412.44
2017-04-22T00:50:04.147Z,101409.89
2017-04-22T00:51:05.020Z,101412.13
2017-04-22T00:52:05.237Z,101411.69
2017-04-22T00:53:05.373Z,101407.23
2017-04-22T00:54:05.524Z,101407.77
2017-04-22T00:55:06.394Z,101404.05
2017-04-22T00:56:06.540Z,101400.45
2017-04-22T00:57:06.713Z,101404.58
2017-04-22T00:58:06.842Z,101398.64
2017-04-22T00:59:06.995Z,101401.40
2017-04-22T01:00:07.125Z,101395.25
2017-04-22T01:01:07.562Z,101390.47
2017-04-22T01:02:07.806Z,101388.99
2017-04-22T01:03:07.925Z,101395.88
2017-04-22T01:04:08.793Z,101393.66
2017-04-22T01:05:08.951Z,101391.43
2017-04-22T01:06:09.119Z,101394.94
2017-04-22T01:07:09.394Z,101388.04
2017-04-22T01:08:09.703Z,101393.23
2017-04-22T01:09:10.597Z,101388.04
2017-04-22T01:10:10.762Z,101387.72
2017-04-22T01:11:10.878Z,101387.30
2017-04-22T01:12:11.027Z,101387.50
2017-04-22T01:13:11.162Z,101381.14
2017-04-22T01:14:11.543Z,101386.23
2017-04-22T01:15:11.702Z,101383.25
2017-04-22T01:16:12.557Z,101386.11
2017-04-22T01:17:12.781Z,101383.27
2017-04-22T01:18:12.909Z,101386.66
2017-04-22T01:19:13.074Z,101383.79
2017-04-22T01:20:13.230Z,101380.39
2017-04-22T01:21:13.338Z,101381.12
2017-04-22T01:22:13.438Z,101382.95
2017-04-22T01:23:13.538Z,101383.26
2017-04-22T01:24:13.683Z,101385.27
2017-04-22T01:25:13.794Z,101377.20
2017-04-22T01:26:13.958Z,101377.84
2017-04-22T01:27:14.084Z,101378.47
2017-04-22T01:28:14.254Z,101377.72
2017-04-22T01:29:14.387Z,101382.16
2017-04-22T01:30:14.498Z,101378.27
2017-04-22T01:31:14.577Z,101381.98
2017-04-22T01:32:15.442Z,101379.33
2017-04-22T01:33:15.542Z,101381.75
2017-04-22T01:34:15.678Z,101380.05
2017-04-22T01:35:15.773Z,101382.16
2017-04-22T01:36:15.877Z,101373.47
2017-04-22T01:37:15.990Z,101374.63
2017-04-22T01:38:16.163Z,101373.36
2017-04-22T01:39:17.042Z,101377.17
2017-04-22T01:40:17.121Z,101376.98
2017-04-22T01:41:17.230Z,101367.52
2017-04-22T01:42:17.315Z,101369.94
2017-04-22T01:43:18.151Z,101365.48
2017-04-22T01:44:19.079Z,101365.06
2017-04-22T01:45:19.905Z,101368.13
2017-04-22T01:46:20.744Z,101366.63
2017-04-22T01:47:20.874Z,101364.18
2017-04-22T01:48:20.979Z,101360.71
2017-04-22T01:49:21.183Z,101367.80
2017-04-22T01:50:21.360Z,101364.30
2017-04-22T01:51:22.248Z,101360.90
2017-04-22T01:52:22.389Z,101364.39
2017-04-22T01:53:22.490Z,101360.88
2017-04-22T01:54:22.602Z,101359.28
2017-04-22T01:55:22.719Z,101363.55
2017-04-22T01:56:22.886Z,101357.82
2017-04-22T01:57:23.011Z,101360.58
2017-04-22T01:58:23.217Z,101354.31
2017-04-22T01:59:23.402Z,101359.30
2017-04-22T02:00:23.536Z,101362.58
2017-04-22T02:01:23.629Z,101358.98
2017-04-22T02:02:23.722Z,101360.03
2017-04-22T02:03:23.850Z,101357.70
2017-04-22T02:04:24.710Z,101358.13
2017-04-22T02:05:24.854Z,101360.55
2017-04-22T02:06:25.678Z,101360.98
2017-04-22T02:07:25.798Z,101358.23
2017-04-22T02:08:25.894Z,101354.20
2017-04-22T02:09:26.910Z,101359.17
2017-04-22T02:10:27.042Z,101359.17
2017-04-22T02:11:27.155Z,101350.59
2017-04-22T02:12:27.999Z,101345.94
2017-04-22T02:13:28.566Z,101351.13
2017-04-22T02:14:28.689Z,101346.98
2017-04-22T02:15:28.786Z,101351.65
2017-04-22T02:16:28.892Z,101342.64
2017-04-22T02:17:29.043Z,101350.38
2017-04-22T02:18:29.133Z,101348.67
2017-04-22T02:19:29.318Z,101346.13
2017-04-22T02:20:29.522Z,101349.83
2017-04-22T02:21:29.669Z,101350.91
2017-04-22T02:22:30.527Z,101343.89
2017-04-22T02:23:30.654Z,101350.91
2017-04-22T02:24:31.183Z,101349.21
2017-04-22T02:25:31.319Z,101342.53
2017-04-22T02:26:31.422Z,101341.16
2017-04-22T02:27:31.889Z,101338.50
2017-04-22T02:28:31.999Z,101345.06
2017-04-22T02:29:32.550Z,101334.58
2017-04-22T02:30:32.663Z,101337.43
2017-04-22T02:31:32.842Z,101333.41
2017-04-22T02:32:32.951Z,101337.53
2017-04-22T02:33:33.479Z,101335.83
2017-04-22T02:34:33.637Z,101333.50
2017-04-22T02:35:34.073Z,101327.25
2017-04-22T02:36:34.274Z,101324.07
2017-04-22T02:37:35.150Z,101327.25
2017-04-22T02:38:35.306Z,101318.24
2017-04-22T02:39:35.451Z,101320.56
2017-04-22T02:40:35.726Z,101325.75
2017-04-22T02:41:35.835Z,101315.69
2017-04-22T02:42:35.946Z,101312.75
2017-04-22T02:43:36.066Z,101315.61
2017-04-22T02:44:36.203Z,101318.78
2017-04-22T02:45:36.348Z,101315.70
2017-04-22T02:46:36.473Z,101317.19
2017-04-22T02:47:36.586Z,101311.68
2017-04-22T02:48:36.694Z,101315.38
2017-04-22T02:49:37.114Z,101313.05
2017-04-22T02:50:37.300Z,101310.61
2017-04-22T02:51:37.486Z,101307.00
2017-04-22T02:52:37.750Z,101307.00
2017-04-22T02:53:37.926Z,101315.69
2017-04-22T02:54:38.043Z,101309.01
2017-04-22T02:55:38.165Z,101311.23
2017-04-22T02:56:39.036Z,101310.81
2017-04-22T02:57:39.159Z,101307.73
2017-04-22T02:58:39.355Z,101310.06
2017-04-22T02:59:40.302Z,101309.53
2017-04-22T03:00:40.447Z,101309.31
2017-04-22T03:01:40.703Z,101302.85
2017-04-22T03:02:40.855Z,101307.51
2017-04-22T03:03:40.991Z,101315.14
2017-04-22T03:04:41.582Z,101305.42
2017-04-22T03:05:41.814Z,101309.55
2017-04-22T03:06:41.946Z,101310.50
2017-04-22T03:07:42.097Z,101316.00
2017-04-22T03:08:42.227Z,101310.50
2017-04-22T03:09:42.435Z,101310.36
2017-04-22T03:10:42.560Z,101309.94
2017-04-22T03:11:42.762Z,101316.43
2017-04-22T03:12:42.919Z,101315.05
2017-04-22T03:13:43.063Z,101310.08
2017-04-22T03:14:43.198Z,101313.78
2017-04-22T03:15:43.319Z,101314.20
2017-04-22T03:16:43.438Z,101313.25
2017-04-22T03:17:43.566Z,101308.70
2017-04-22T03:18:43.703Z,101310.70
2017-04-22T03:19:44.590Z,101312.18
2017-04-22T03:20:44.777Z,101310.48
2017-04-22T03:21:45.058Z,101302.22
2017-04-22T03:22:45.899Z,101305.92
2017-04-22T03:23:45.996Z,101310.05
2017-04-22T03:24:46.116Z,101296.29
2017-04-22T03:25:46.212Z,101298.63
2017-04-22T03:26:46.346Z,101302.32
2017-04-22T03:27:46.464Z,101300.52
2017-04-22T03:28:46.563Z,101305.70
2017-04-22T03:29:46.707Z,101299.34
2017-04-22T03:30:46.794Z,101297.65
2017-04-22T03:31:46.912Z,101298.60
2017-04-22T03:32:47.030Z,101295.95
2017-04-22T03:33:47.148Z,101294.77
2017-04-22T03:34:47.273Z,101295.83
2017-04-22T03:35:47.369Z,101295.73
2017-04-22T03:36:47.793Z,101295.73
2017-04-22T03:37:47.927Z,101309.06
2017-04-22T03:38:48.768Z,101300.09
2017-04-22T03:39:48.893Z,101300.19
2017-04-22T03:40:48.994Z,101295.64
2017-04-22T03:41:49.094Z,101289.19
2017-04-22T03:42:49.211Z,101290.13
2017-04-22T03:43:49.311Z,101295.21
2017-04-22T03:44:49.430Z,101297.02
2017-04-22T03:45:49.527Z,101295.64
2017-04-22T03:46:49.626Z,101289.19
2017-04-22T03:47:50.480Z,101290.98
2017-04-22T03:48:50.615Z,101298.29
2017-04-22T03:49:50.725Z,101293.84
2017-04-22T03:50:50.847Z,101293.41
2017-04-22T03:51:50.953Z,101293.41
2017-04-22T03:52:51.071Z,101299.87
2017-04-22T03:53:51.182Z,101296.59
2017-04-22T03:54:51.309Z,101287.48
2017-04-22T03:55:51.422Z,101286.20
2017-04-22T03:56:52.263Z,101289.48
2017-04-22T03:57:53.107Z,101291.61
2017-04-22T03:58:53.215Z,101285.36
2017-04-22T03:59:53.355Z,101285.36
2017-04-22T04:00:53.534Z,101281.23
2017-04-22T04:01:53.626Z,101281.86
2017-04-22T04:02:54.494Z,101286.83
2017-04-22T04:03:54.605Z,101282.70
2017-04-22T04:04:54.713Z,101275.41
2017-04-22T04:05:55.890Z,101277.30
2017-04-22T04:06:56.733Z,101276.88
2017-04-22T04:07:56.845Z,101282.81
2017-04-22T04:08:57.679Z,101279.20
2017-04-22T04:09:57.903Z,101274.66
2017-04-22T04:10:58.122Z,101284.70
2017-04-22T04:11:58.341Z,101277.83
2017-04-22T04:12:58.526Z,101277.51
2017-04-22T04:13:58.789Z,101275.91
2017-04-22T04:14:58.993Z,101282.36
2017-04-22T04:15:59.238Z,101284.16
2017-04-22T04:16:59.382Z,101280.98
2017-04-22T04:17:59.493Z,101283.84
2017-04-22T04:18:59.594Z,101282.56
2017-04-22T04:19:59.738Z,101279.91
2017-04-22T04:21:01.617Z,101282.77
2017-04-22T04:22:01.742Z,101280.57
2017-04-22T04:23:02.583Z,101288.83
2017-04-22T04:24:03.409Z,101283.84
2017-04-22T04:25:04.262Z,101281.63
2017-04-22T04:26:04.394Z,101287.13
2017-04-22T04:27:04.516Z,101282.16
2017-04-22T04:28:04.630Z,101275.70
2017-04-22T04:29:04.748Z,101289.98
2017-04-22T04:30:04.879Z,101276.85
2017-04-22T04:31:05.741Z,101278.13
2017-04-22T04:32:05.867Z,101280.03
2017-04-22T04:33:05.966Z,101281.08
2017-04-22T04:34:06.054Z,101281.28
2017-04-22T04:35:06.154Z,101283.28
2017-04-22T04:36:06.274Z,101284.23
2017-04-22T04:37:06.374Z,101280.73
2017-04-22T04:38:06.470Z,101279.45
2017-04-22T04:39:07.293Z,101274.05
2017-04-22T04:40:08.149Z,101277.86
2017-04-22T04:41:08.304Z,101274.39
2017-04-22T04:42:08.420Z,101269.94
2017-04-22T04:43:08.529Z,101259.89
2017-04-22T04:44:09.394Z,101267.72
2017-04-22T04:45:09.630Z,101271.94
2017-04-22T04:46:09.773Z,101267.81
2017-04-22T04:47:09.881Z,101270.66
2017-04-22T04:48:09.990Z,101262.52
2017-04-22T04:49:10.099Z,101262.52
2017-04-22T04:50:10.219Z,101257.64
2017-04-22T04:51:10.370Z,101254.56
2017-04-22T04:52:10.469Z,101258.27
2017-04-22T04:53:10.574Z,101259.64
2017-04-22T04:54:11.430Z,101269.80
2017-04-22T04:55:11.547Z,101259.11
2017-04-22T04:56:11.662Z,101261.86
2017-04-22T04:57:11.758Z,101260.48
2017-04-22T04:58:11.849Z,101264.30
2017-04-22T04:59:12.957Z,101267.89
2017-04-22T05:00:13.829Z,101259.74
2017-04-22T05:01:13.946Z,101255.19
2017-04-22T05:02:14.058Z,101257.52
2017-04-22T05:03:14.154Z,101256.56
2017-04-22T05:04:14.318Z,101258.79
2017-04-22T05:05:14.409Z,101257.52
2017-04-22T05:06:14.556Z,101259.11
2017-04-22T05:07:15.455Z,101264.94
2017-04-22T05:08:15.566Z,101259.44
2017-04-22T05:09:15.671Z,101261.23
2017-04-22T05:10:15.786Z,101268.97
2017-04-22T05:11:15.907Z,101259.66
2017-04-22T05:12:16.006Z,101265.06
2017-04-22T05:13:16.105Z,101260.09
2017-04-22T05:14:16.199Z,101263.79
2017-04-22T05:15:17.385Z,101266.02
2017-04-22T05:16:17.542Z,101269.72
2017-04-22T05:17:17.637Z,101262.31
2017-04-22T05:18:17.750Z,101265.48
2017-04-22T05:19:17.874Z,101271.22
2017-04-22T05:20:17.994Z,101262.73
2017-04-22T05:21:18.854Z,101270.04
2017-04-22T05:22:18.973Z,101266.86
2017-04-22T05:23:19.809Z,101267.29
2017-04-22T05:24:19.906Z,101268.14
2017-04-22T05:25:20.002Z,101257.98
2017-04-22T05:26:20.142Z,101263.91
2017-04-22T05:27:20.226Z,101260.20
2017-04-22T05:28:20.320Z,101260.64
2017-04-22T05:29:20.414Z,101267.94
2017-04-22T05:30:20.516Z,101261.48
2017-04-22T05:31:20.629Z,101262.73
2017-04-22T05:32:20.858Z,101266.23
2017-04-22T05:33:20.949Z,101262.42
2017-04-22T05:34:21.037Z,101260.95
2017-04-22T05:35:21.182Z,101259.05
2017-04-22T05:36:22.063Z,101258.42
2017-04-22T05:37:22.186Z,101263.39
2017-04-22T05:38:22.292Z,101256.84
2017-04-22T05:39:22.401Z,101257.91
2017-04-22T05:40:22.522Z,101259.71
2017-04-22T05:41:22.634Z,101253.05
2017-04-22T05:42:22.727Z,101250.59
2017-04-22T05:43:22.843Z,101249.75
2017-04-22T05:44:23.194Z,101258.84
2017-04-22T05:45:24.077Z,101257.70
2017-04-22T05:46:24.217Z,101256.22
2017-04-22T05:47:24.322Z,101255.89
2017-04-22T05:48:25.179Z,101257.50
2017-04-22T05:49:26.014Z,101253.79
2017-04-22T05:50:26.862Z,101259.19
2017-04-22T05:51:26.998Z,101258.56
2017-04-22T05:52:27.109Z,101254.02
2017-04-22T05:53:27.213Z,101254.34
2017-04-22T05:54:27.312Z,101257.94
2017-04-22T05:55:27.430Z,101250.11
2017-04-22T05:56:27.604Z,101250.86
2017-04-22T05:57:28.456Z,101255.62
2017-04-22T05:58:28.571Z,101255.06
2017-04-22T05:59:28.680Z,101246.81
2017-04-22T06:00:28.794Z,101244.91
2017-04-22T06:01:28.918Z,101249.78
2017-04-22T06:02:29.025Z,101251.38
2017-04-22T06:03:29.146Z,101250.96
2017-04-22T06:04:29.298Z,101253.08
2017-04-22T06:05:30.147Z,101252.45
2017-04-22T06:06:30.283Z,101250.02
2017-04-22T06:07:30.395Z,101251.72
2017-04-22T06:08:30.494Z,101253.42
2017-04-22T06:09:30.582Z,101256.92
2017-04-22T06:10:30.690Z,101252.55
2017-04-22T06:11:30.810Z,101254.78
2017-04-22T06:12:30.909Z,101259.23
2017-04-22T06:13:31.020Z,101259.56
2017-04-22T06:14:31.174Z,101254.48
2017-04-22T06:15:31.283Z,101257.98
2017-04-22T06:16:31.419Z,101253.52
2017-04-22T06:17:31.542Z,101257.45
2017-04-22T06:18:32.411Z,101254.70
2017-04-22T06:19:32.594Z,101255.55
2017-04-22T06:20:32.702Z,101261.48
2017-04-22T06:21:32.826Z,101256.39
2017-04-22T06:22:32.922Z,101260.95
2017-04-22T06:23:33.027Z,101255.44
2017-04-22T06:24:33.117Z,101255.13
2017-04-22T06:25:33.956Z,101259.67
2017-04-22T06:26:34.089Z,101263.70
2017-04-22T06:27:34.194Z,101259.58
2017-04-22T06:28:34.290Z,101261.27
2017-04-22T06:29:34.399Z,101255.98
2017-04-22T06:30:34.513Z,101254.59
2017-04-22T06:31:34.631Z,101262.34
2017-04-22T06:32:34.775Z,101253.67
2017-04-22T06:33:34.876Z,101251.64
2017-04-22T06:34:34.966Z,101255.26
2017-04-22T06:35:35.073Z,101247.33
2017-04-22T06:36:35.219Z,101244.47
2017-04-22T06:37:35.322Z,101250.81
2017-04-22T06:38:36.151Z,101251.67
2017-04-22T06:39:36.258Z,101246.70
2017-04-22T06:40:36.386Z,101242.68
2017-04-22T06:41:36.498Z,101248.59
2017-04-22T06:42:36.592Z,101244.05
2017-04-22T06:43:36.695Z,101251.27
2017-04-22T06:44:36.784Z,101243.43
2017-04-22T06:45:36.885Z,101239.41
2017-04-22T06:46:36.997Z,101245.25
2017-04-22T06:47:37.098Z,101239.60
2017-04-22T06:48:37.195Z,101238.13
2017-04-22T06:49:38.044Z,101238.77
2017-04-22T06:50:38.153Z,101230.58
2017-04-22T06:51:38.269Z,101230.91
2017-04-22T06:52:38.362Z,101235.78
2017-04-22T06:53:38.466Z,101234.16
2017-04-22T06:54:38.553Z,101231.62
2017-04-22T06:55:39.401Z,101234.91
2017-04-22T06:56:39.539Z,101244.00
2017-04-22T06:57:39.641Z,101240.92
2017-04-22T06:58:39.735Z,101228.52
2017-04-22T06:59:39.833Z,101234.14
2017-04-22T07:00:39.991Z,101236.97
2017-04-22T07:01:40.136Z,101232.94
2017-04-22T07:02:43.402Z,101237.81
2017-04-22T07:03:43.475Z,101233.89
2017-04-22T07:04:43.563Z,101241.28
2017-04-22T07:05:43.671Z,101240.11
2017-04-22T07:06:43.802Z,101241.17
2017-04-22T07:07:43.895Z,101237.35
2017-04-22T07:08:44.010Z,101238.95
2017-04-22T07:09:44.106Z,101234.59
2017-04-22T07:10:44.209Z,101236.29
2017-04-22T07:11:44.317Z,101232.89
2017-04-22T07:12:44.422Z,101235.94
2017-04-22T07:13:44.547Z,101235.83
2017-04-22T07:14:44.636Z,101236.68
2017-04-22T07:15:45.473Z,101241.14
2017-04-22T07:16:45.613Z,101241.77
2017-04-22T07:17:45.702Z,101237.31
2017-04-22T07:18:45.794Z,101242.41
2017-04-22T07:19:46.657Z,101241.59
2017-04-22T07:20:46.766Z,101232.58
2017-04-22T07:21:46.897Z,101233.00
2017-04-22T07:22:47.029Z,101239.58
2017-04-22T07:23:47.145Z,101232.26
2017-04-22T07:24:47.266Z,101231.41
2017-04-22T07:25:48.130Z,101232.37
2017-04-22T07:26:48.279Z,101225.58
2017-04-22T07:27:48.399Z,101233.53
2017-04-22T07:28:48.515Z,101234.48
2017-04-22T07:29:49.374Z,101233.53
2017-04-22T07:30:49.505Z,101238.62
2017-04-22T07:31:49.667Z,101237.56
2017-04-22T07:32:50.510Z,101239.48
2017-04-22T07:33:50.611Z,101238.09
2017-04-22T07:34:51.482Z,101240.96
2017-04-22T07:35:51.596Z,101237.78
2017-04-22T07:36:51.741Z,101237.04
2017-04-22T07:37:51.855Z,101239.69
2017-04-22T07:38:52.718Z,101238.84
2017-04-22T07:39:52.870Z,101235.38
2017-04-22T07:40:53.030Z,101234.17
2017-04-22T07:41:53.173Z,101240.22
2017-04-22T07:42:53.285Z,101242.45
2017-04-22T07:43:53.395Z,101239.69
2017-04-22T07:44:53.535Z,101240.65
2017-04-22T07:45:54.401Z,101234.59
2017-04-22T07:46:54.614Z,101234.28
2017-04-22T07:47:54.737Z,101235.23
2017-04-22T07:48:54.846Z,101242.91
2017-04-22T07:49:55.003Z,101250.86
2017-04-22T07:50:55.110Z,101246.20
2017-04-22T07:51:55.242Z,101238.56
2017-04-22T07:52:55.385Z,101239.62
2017-04-22T07:53:55.499Z,101244.71
2017-04-22T07:54:55.650Z,101246.63
2017-04-22T07:55:55.871Z,101241.95
2017-04-22T07:56:56.759Z,101237.08
2017-04-22T07:57:56.893Z,101245.56
2017-04-22T07:58:57.421Z,101238.06
2017-04-22T07:59:57.547Z,101248.35
2017-04-22T08:00:58.412Z,101242.73
2017-04-22T08:01:58.562Z,101244.74
2017-04-22T08:02:58.698Z,101245.70
2017-04-22T08:03:59.577Z,101248.98
2017-04-22T08:04:59.706Z,101248.98
2017-04-22T08:05:59.835Z,101248.45
2017-04-22T08:07:00.763Z,101247.61
2017-04-22T08:08:01.201Z,101245.70
2017-04-22T08:09:01.367Z,101247.29
2017-04-22T08:10:01.806Z,101249.94
2017-04-22T08:11:02.737Z,101245.06
2017-04-22T08:12:02.924Z,101242.41
2017-04-22T08:13:03.131Z,101249.41
2017-04-22T08:14:03.244Z,101250.89
2017-04-22T08:15:03.369Z,101247.28
2017-04-22T08:16:03.478Z,101248.13
2017-04-22T08:17:03.629Z,101250.47
2017-04-22T08:18:03.826Z,101255.70
2017-04-22T08:19:04.699Z,101246.78
2017-04-22T08:20:04.834Z,101254.21
2017-04-22T08:21:04.978Z,101257.17
2017-04-22T08:22:05.181Z,101255.05
2017-04-22T08:23:06.056Z,101264.59
2017-04-22T08:24:06.175Z,101262.05
2017-04-22T08:25:06.301Z,101259.51
2017-04-22T08:26:06.466Z,101255.38
2017-04-22T08:27:06.668Z,101260.56
2017-04-22T08:28:06.806Z,101263.95
2017-04-22T08:29:06.970Z,101267.34
2017-04-22T08:30:07.818Z,101264.94
2017-04-22T08:31:07.937Z,101269.08
2017-04-22T08:32:08.090Z,101265.58
2017-04-22T08:33:08.198Z,101273.52
2017-04-22T08:34:08.314Z,101267.16
2017-04-22T08:35:08.417Z,101272.88
2017-04-22T08:36:08.525Z,101272.98
2017-04-22T08:37:08.641Z,101279.45
2017-04-22T08:38:09.556Z,101277.13
2017-04-22T08:39:09.984Z,101283.16
2017-04-22T08:40:10.094Z,101278.28
2017-04-22T08:41:10.203Z,101282.34
2017-04-22T08:42:10.318Z,101284.35
2017-04-22T08:43:10.486Z,101290.72
2017-04-22T08:44:10.720Z,101290.08
2017-04-22T08:45:10.837Z,101306.82
2017-04-22T08:46:10.968Z,101303.31
2017-04-22T08:47:11.871Z,101312.85
2017-04-22T08:48:12.038Z,101303.33
2017-04-22T08:49:12.159Z,101314.55
2017-04-22T08:50:12.309Z,101313.27
2017-04-22T08:51:12.499Z,101313.66
2017-04-22T08:52:12.618Z,101318.84
2017-04-22T08:53:12.771Z,101336.13
2017-04-22T08:54:13.371Z,101334.73
2017-04-22T08:55:13.534Z,101327.74
2017-04-22T08:56:13.675Z,101322.95
2017-04-22T08:57:14.522Z,101320.81
2017-04-22T08:58:14.683Z,101328.34
2017-04-22T08:59:16.122Z,101323.97
2017-04-22T09:00:16.421Z,101327.36
2017-04-22T09:01:16.537Z,101338.77
2017-04-22T09:02:16.668Z,101334.00
2017-04-22T09:03:16.787Z,101341.16
2017-04-22T09:04:16.911Z,101343.70
2017-04-22T09:05:17.064Z,101337.73
2017-04-22T09:06:17.202Z,101341.64
2017-04-22T09:07:17.322Z,101350.59
2017-04-22T09:08:17.490Z,101348.54
2017-04-22T09:09:18.402Z,101344.95
2017-04-22T09:10:18.573Z,101338.89
2017-04-22T09:11:18.690Z,101344.37
2017-04-22T09:12:18.801Z,101343.84
2017-04-22T09:13:19.311Z,101348.37
2017-04-22T09:14:19.499Z,101349.42
2017-04-22T09:15:19.678Z,101350.56
2017-04-22T09:16:20.609Z,101352.67
2017-04-22T09:17:21.499Z,101350.87
2017-04-22T09:18:21.910Z,101349.79
2017-04-22T09:19:22.029Z,101362.79
2017-04-22T09:20:22.138Z,101363.41
2017-04-22T09:21:22.268Z,101357.78
2017-04-22T09:22:23.182Z,101358.08
2017-04-22T09:23:23.263Z,101355.33
2017-04-22T09:24:23.397Z,101360.08
2017-04-22T09:25:23.493Z,101352.22
2017-04-22T09:26:23.582Z,101358.24
2017-04-22T09:27:23.674Z,101363.41
2017-04-22T09:28:23.796Z,101360.56
2017-04-22T09:29:23.914Z,101362.23
2017-04-22T09:30:24.105Z,101364.56
2017-04-22T09:31:24.239Z,101360.53
2017-04-22T09:32:24.398Z,101368.27
2017-04-22T09:33:24.559Z,101362.99
2017-04-22T09:34:24.684Z,101369.53
2017-04-22T09:35:24.788Z,101369.20
2017-04-22T09:36:24.871Z,101363.28
2017-04-22T09:37:24.988Z,101363.09
2017-04-22T09:38:25.093Z,101364.27
2017-04-22T09:39:25.225Z,101359.52
2017-04-22T09:40:25.311Z,101363.77
2017-04-22T09:41:25.474Z,101367.70
2017-04-22T09:42:25.630Z,101371.50
2017-04-22T09:43:25.827Z,101363.67
2017-04-22T09:44:26.003Z,101365.18
2017-04-22T09:45:26.176Z,101368.78
2017-04-22T09:46:26.270Z,101362.66
2017-04-22T09:47:26.646Z,101365.11
2017-04-22T09:48:26.735Z,101368.42
2017-04-22T09:49:26.866Z,101376.77
2017-04-22T09:50:26.966Z,101371.06
2017-04-22T09:51:27.061Z,101368.77
2017-04-22T09:52:27.170Z,101375.45
2017-04-22T09:53:27.250Z,101370.70
2017-04-22T09:54:27.370Z,101365.53
2017-04-22T09:55:27.466Z,101369.98
2017-04-22T09:56:27.553Z,101374.95
2017-04-22T09:57:28.400Z,101374.53
2017-04-22T09:58:28.501Z,101371.78
2017-04-22T09:59:28.638Z,101372.92
2017-04-22T10:00:28.751Z,101366.80
2017-04-22T10:01:28.886Z,101362.90
2017-04-22T10:02:28.986Z,101364.70
2017-04-22T10:03:29.098Z,101356.88
2017-04-22T10:04:29.220Z,101358.47
2017-04-22T10:05:29.347Z,101356.25
2017-04-22T10:06:30.214Z,101356.90
2017-04-22T10:07:30.306Z,101359.75
2017-04-22T10:08:30.400Z,101355.00
2017-04-22T10:09:31.237Z,101356.60
2017-04-22T10:10:31.339Z,101350.25
2017-04-22T10:11:31.434Z,101352.58
2017-04-22T10:12:32.377Z,101348.22
2017-04-22T10:13:32.479Z,101353.50
2017-04-22T10:14:32.605Z,101354.88
2017-04-22T10:15:32.701Z,101354.32
2017-04-22T10:16:33.573Z,101349.57
2017-04-22T10:17:33.678Z,101356.64
2017-04-22T10:18:33.781Z,101352.62
2017-04-22T10:19:33.931Z,101359.70
2017-04-22T10:20:34.025Z,101355.99
2017-04-22T10:21:34.894Z,101362.77
2017-04-22T10:22:35.738Z,101359.30
2017-04-22T10:23:35.816Z,101357.17
2017-04-22T10:24:36.663Z,101361.39
2017-04-22T10:25:36.798Z,101354.62
2017-04-22T10:26:36.894Z,101356.95
2017-04-22T10:27:37.016Z,101356.13
2017-04-22T10:28:37.094Z,101355.57
2017-04-22T10:29:37.954Z,101355.59
2017-04-22T10:30:38.066Z,101352.13
2017-04-22T10:31:38.169Z,101353.00
2017-04-22T10:32:38.283Z,101357.78
2017-04-22T10:33:38.402Z,101354.49
2017-04-22T10:34:38.525Z,101345.72
2017-04-22T10:35:38.639Z,101348.92
2017-04-22T10:36:38.748Z,101351.80
2017-04-22T10:37:38.855Z,101351.88
2017-04-22T10:38:38.995Z,101354.34
2017-04-22T10:39:39.863Z,101343.25
2017-04-22T10:40:39.970Z,101357.98
2017-04-22T10:41:40.072Z,101352.89
2017-04-22T10:42:40.155Z,101350.17
2017-04-22T10:43:40.975Z,101351.99
2017-04-22T10:44:41.843Z,101350.93
2017-04-22T10:45:41.933Z,101349.05
2017-04-22T10:46:42.765Z,101346.21
2017-04-22T10:47:42.845Z,101342.07
2017-04-22T10:48:43.689Z,101341.78
2017-04-22T10:49:44.519Z,101336.28
2017-04-22T10:50:44.722Z,101340.44
2017-04-22T10:51:45.554Z,101340.77
2017-04-22T10:52:46.383Z,101341.52
2017-04-22T10:53:47.298Z,101340.82
2017-04-22T10:54:48.173Z,101337.12
2017-04-22T10:55:48.261Z,101335.13
2017-04-22T10:56:48.333Z,101330.98
2017-04-22T10:57:48.435Z,101331.63
2017-04-22T10:58:48.534Z,101338.19
2017-04-22T10:59:48.661Z,101327.38
2017-04-22T11:00:48.774Z,101332.02
2017-04-22T11:01:48.866Z,101330.97
2017-04-22T11:02:48.966Z,101327.88
2017-04-22T11:03:49.080Z,101334.14
2017-04-22T11:04:49.206Z,101334.56
2017-04-22T11:05:49.302Z,101328.39
2017-04-22T11:06:49.406Z,101333.70
2017-04-22T11:07:49.529Z,101344.80
2017-04-22T11:08:49.624Z,101346.30
2017-04-22T11:09:49.750Z,101350.51
2017-04-22T11:10:49.858Z,101345.95
2017-04-22T11:11:49.951Z,101339.47
2017-04-22T11:12:56.387Z,101329.39
2017-04-22T11:13:56.477Z,101335.30
2017-04-22T11:14:56.578Z,101334.13
2017-04-22T11:15:56.685Z,101334.02
2017-04-22T11:16:56.779Z,101326.80
2017-04-22T11:17:57.599Z,101322.41
2017-04-22T11:18:58.422Z,101332.49
2017-04-22T11:19:58.538Z,101324.84
2017-04-22T11:20:59.410Z,101325.67
2017-04-22T11:21:59.518Z,101321.81
2017-04-22T11:22:59.614Z,101319.88
2017-04-22T11:23:59.719Z,101331.20
2017-04-22T11:24:59.826Z,101319.81
2017-04-22T11:25:59.954Z,101322.42
2017-04-22T11:27:00.074Z,101324.54
2017-04-22T11:28:00.202Z,101316.99